Time;durP1;ratioP1;P1;durP2;ratioP2;P2;SDS_P1;SDS_P2;PMS_P1;PMS_P2;Temp;Humidity;BMP_temperature;BMP_pressure;BME280_temperature;BME280_humidity;BME280_pressure;Samples;Min_cycle;Max_cycle;Signal;HPM_P1;HPM_P2
2022/07/31 00:02:00;;;;;;;6.72;3.40;;;;;;;;;;5052510;28;20200;-68
2022/07/31 00:04:27;;;;;;;3.85;2.83;;;;;;;;;;5060645;28;20201;-68
2022/07/31 00:06:52;;;;;;;6.07;3.25;;;;;;;;;;5064770;28;20271;-68
2022/07/31 00:09:18;;;;;;;4.18;2.67;;;;;;;;;;5062893;28;20331;-68
2022/07/31 00:11:43;;;;;;;5.50;3.20;;;;;;;;;;5062187;28;20556;-68
2022/07/31 00:14:10;;;;;;;8.13;3.15;;;;;;;;;;5050751;28;20252;-68
2022/07/31 00:16:36;;;;;;;7.40;3.10;;;;;;;;;;5049728;28;20622;-68
2022/07/31 00:19:01;;;;;;;5.40;2.75;;;;;;;;;;5061873;28;20226;-68
2022/07/31 00:21:26;;;;;;;6.18;2.85;;;;;;;;;;5056705;28;20231;-68
2022/07/31 00:23:52;;;;;;;4.47;2.50;;;;;;;;;;5059908;28;20185;-68
2022/07/31 00:26:17;;;;;;;6.07;2.90;;;;;;;;;;5066979;28;20232;-68
2022/07/31 00:28:43;;;;;;;4.47;2.85;;;;;;;;;;5055465;28;20181;-68
2022/07/31 00:31:08;;;;;;;3.42;2.67;;;;;;;;;;5068224;28;20208;-68
2022/07/31 00:33:34;;;;;;;7.07;3.13;;;;;;;;;;5063166;28;20209;-68
2022/07/31 00:35:59;;;;;;;4.95;2.75;;;;;;;;;;5060022;28;20279;-68
2022/07/31 00:38:24;;;;;;;3.78;2.55;;;;;;;;;;5061607;28;20186;-68
2022/07/31 00:40:50;;;;;;;7.40;2.53;;;;;;;;;;5050766;28;20565;-68
2022/07/31 00:43:17;;;;;;;4.18;2.70;;;;;;;;;;5056907;28;20177;-68
2022/07/31 00:45:42;;;;;;;6.03;2.65;;;;;;;;;;5050980;28;20195;-68
2022/07/31 00:48:08;;;;;;;6.45;3.33;;;;;;;;;;5048691;28;20614;-68
2022/07/31 00:50:33;;;;;;;5.75;3.22;;;;;;;;;;5049664;28;20212;-67
2022/07/31 00:52:59;;;;;;;5.65;3.30;;;;;;;;;;5049719;28;20233;-67
2022/07/31 00:55:25;;;;;;;6.03;3.10;;;;;;;;;;5049383;28;20185;-67
2022/07/31 00:57:50;;;;;;;5.53;3.20;;;;;;;;;;5055780;28;20203;-67
2022/07/31 01:00:16;;;;;;;7.80;2.97;;;;;;;;;;5058961;28;20185;-67
2022/07/31 01:02:41;;;;;;;6.18;3.30;;;;;;;;;;5059801;28;20177;-67
2022/07/31 01:05:07;;;;;;;3.42;3.13;;;;;;;;;;5058152;28;20204;-67
2022/07/31 01:07:33;;;;;;;10.23;3.42;;;;;;;;;;5057398;28;20192;-68
2022/07/31 01:10:04;;;;;;;6.13;3.40;;;;;;;;;;5067531;28;20195;-68
2022/07/31 01:12:37;;;;;;;6.00;3.28;;;;;;;;;;5050857;28;20258;-68
2022/07/31 01:15:06;;;;;;;3.67;3.10;;;;;;;;;;5051630;28;20205;-67
2022/07/31 01:17:34;;;;;;;5.95;3.30;;;;;;;;;;5060710;28;20176;-67
2022/07/31 01:19:59;;;;;;;5.20;3.33;;;;;;;;;;5055019;28;20649;-67
2022/07/31 01:22:44;;;;;;;6.57;3.28;;;;;;;;;;5050934;28;20184;-67
2022/07/31 01:25:12;;;;;;;6.40;3.63;;;;;;;;;;5052777;28;20236;-67
2022/07/31 01:28:24;;;;;;;5.70;3.35;;;;;;;;;;5054621;28;20204;-67
2022/07/31 01:30:51;;;;;;;5.35;3.30;;;;;;;;;;5029410;28;20209;-68
2022/07/31 01:33:28;;;;;;;4.47;3.13;;;;;;;;;;5056144;28;20258;-68
2022/07/31 01:36:01;;;;;;;5.32;3.60;;;;;;;;;;5059506;28;20180;-68
2022/07/31 01:38:32;;;;;;;6.85;3.83;;;;;;;;;;5048745;28;20548;-68
2022/07/31 01:41:03;;;;;;;7.38;3.65;;;;;;;;;;5056008;28;20181;-67
2022/07/31 01:43:32;;;;;;;6.07;3.70;;;;;;;;;;5068417;28;20645;-68
2022/07/31 01:46:01;;;;;;;4.15;3.60;;;;;;;;;;5058720;28;20180;-68
2022/07/31 01:48:30;;;;;;;5.20;3.25;;;;;;;;;;5056425;28;20185;-68
2022/07/31 01:50:58;;;;;;;6.78;3.83;;;;;;;;;;5054600;28;20629;-69
2022/07/31 01:53:25;;;;;;;4.68;4.07;;;;;;;;;;5051773;28;20287;-68
2022/07/31 01:55:53;;;;;;;6.22;3.10;;;;;;;;;;5054277;28;20723;-68
2022/07/31 01:58:21;;;;;;;5.43;3.67;;;;;;;;;;5060499;28;20196;-68
2022/07/31 02:00:49;;;;;;;5.43;3.22;;;;;;;;;;5052782;28;20177;-68
2022/07/31 02:03:16;;;;;;;4.40;3.40;;;;;;;;;;5050161;28;20185;-68
2022/07/31 02:05:42;;;;;;;5.63;3.03;;;;;;;;;;5058079;28;20216;-68
2022/07/31 02:08:09;;;;;;;7.55;3.30;;;;;;;;;;5051670;28;20586;-68
2022/07/31 02:10:36;;;;;;;5.55;3.05;;;;;;;;;;5060811;28;20190;-68
2022/07/31 02:13:04;;;;;;;7.22;3.35;;;;;;;;;;5058625;28;20199;-68
2022/07/31 02:15:30;;;;;;;5.55;3.53;;;;;;;;;;5063700;28;20814;-68
2022/07/31 02:17:56;;;;;;;8.50;3.33;;;;;;;;;;5051422;28;20186;-68
2022/07/31 02:20:22;;;;;;;5.85;3.50;;;;;;;;;;5053242;28;20213;-68
2022/07/31 02:22:48;;;;;;;8.25;3.80;;;;;;;;;;5048904;28;20272;-68
2022/07/31 02:25:14;;;;;;;5.13;3.95;;;;;;;;;;5056689;28;20308;-68
2022/07/31 02:27:42;;;;;;;6.40;3.97;;;;;;;;;;5063647;28;20271;-68
2022/07/31 02:30:08;;;;;;;5.35;3.28;;;;;;;;;;5048120;28;20177;-68
2022/07/31 02:32:34;;;;;;;6.25;3.38;;;;;;;;;;5049897;28;20552;-68
2022/07/31 02:35:01;;;;;;;4.68;3.10;;;;;;;;;;5057677;28;20204;-68
2022/07/31 02:37:28;;;;;;;5.93;3.38;;;;;;;;;;5047773;28;20187;-68
2022/07/31 02:39:54;;;;;;;6.72;3.78;;;;;;;;;;5049033;28;20189;-68
2022/07/31 02:42:21;;;;;;;6.68;3.92;;;;;;;;;;5055557;28;20189;-69
2022/07/31 02:44:48;;;;;;;5.50;3.63;;;;;;;;;;5057880;28;20181;-68
2022/07/31 02:47:14;;;;;;;8.55;3.80;;;;;;;;;;5061062;28;20192;-68
2022/07/31 02:49:40;;;;;;;5.47;3.80;;;;;;;;;;5052081;28;20279;-68
2022/07/31 02:52:05;;;;;;;7.60;3.83;;;;;;;;;;5054607;28;20672;-68
2022/07/31 02:54:33;;;;;;;7.65;4.03;;;;;;;;;;5052515;28;20213;-68
2022/07/31 02:57:00;;;;;;;5.18;3.67;;;;;;;;;;5056232;28;20189;-68
2022/07/31 02:59:25;;;;;;;5.93;3.50;;;;;;;;;;5063147;28;20212;-68
2022/07/31 03:01:50;;;;;;;6.97;4.10;;;;;;;;;;5067172;28;20662;-68
2022/07/31 03:04:16;;;;;;;4.88;3.50;;;;;;;;;;5061343;28;20209;-68
2022/07/31 03:06:42;;;;;;;5.65;3.33;;;;;;;;;;5063368;28;20652;-68
2022/07/31 03:09:07;;;;;;;3.78;3.28;;;;;;;;;;5070705;28;20194;-68
2022/07/31 03:11:33;;;;;;;7.40;3.90;;;;;;;;;;5063593;28;20181;-68
2022/07/31 03:14:00;;;;;;;4.35;3.85;;;;;;;;;;5065960;28;20201;-68
2022/07/31 03:16:28;;;;;;;9.73;3.88;;;;;;;;;;5057307;28;20263;-68
2022/07/31 03:18:55;;;;;;;5.72;3.30;;;;;;;;;;5058845;28;20193;-68
2022/07/31 03:21:21;;;;;;;7.32;3.63;;;;;;;;;;5061031;28;20181;-68
2022/07/31 03:23:48;;;;;;;5.60;3.90;;;;;;;;;;5057916;28;20184;-68
2022/07/31 03:26:15;;;;;;;4.47;3.00;;;;;;;;;;5058150;28;20228;-68
2022/07/31 03:28:41;;;;;;;6.45;3.63;;;;;;;;;;5058082;28;20173;-68
2022/07/31 03:31:06;;;;;;;3.95;3.33;;;;;;;;;;5056217;28;20209;-68
2022/07/31 03:33:32;;;;;;;4.72;3.22;;;;;;;;;;5063781;28;20205;-68
2022/07/31 03:35:57;;;;;;;5.72;3.40;;;;;;;;;;5054375;28;20438;-68
2022/07/31 03:38:23;;;;;;;6.35;2.92;;;;;;;;;;5064762;28;20234;-68
2022/07/31 03:40:48;;;;;;;4.82;3.05;;;;;;;;;;5063960;28;20632;-68
2022/07/31 03:43:15;;;;;;;6.97;3.72;;;;;;;;;;5062854;28;20276;-68
2022/07/31 03:45:40;;;;;;;3.65;2.97;;;;;;;;;;5058698;28;20177;-68
2022/07/31 03:48:07;;;;;;;6.35;3.08;;;;;;;;;;5055997;28;20188;-68
2022/07/31 03:50:36;;;;;;;6.15;3.20;;;;;;;;;;5066155;28;20633;-68
2022/07/31 03:53:03;;;;;;;5.95;3.20;;;;;;;;;;5055178;28;20665;-68
2022/07/31 03:55:29;;;;;;;7.40;3.60;;;;;;;;;;5057946;28;20182;-68
2022/07/31 03:57:54;;;;;;;5.90;4.00;;;;;;;;;;5056683;28;20235;-68
2022/07/31 04:00:25;;;;;;;3.60;3.13;;;;;;;;;;5052988;28;20185;-68
2022/07/31 04:02:52;;;;;;;3.75;3.30;;;;;;;;;;5052525;28;20579;-68
2022/07/31 04:05:18;;;;;;;5.68;3.28;;;;;;;;;;5062197;28;20216;-68
2022/07/31 04:07:43;;;;;;;4.72;3.38;;;;;;;;;;5063984;28;20219;-68
2022/07/31 04:10:09;;;;;;;8.90;3.50;;;;;;;;;;5053974;28;20182;-68
2022/07/31 04:12:34;;;;;;;5.15;3.28;;;;;;;;;;5054380;28;20661;-68
2022/07/31 04:14:59;;;;;;;4.30;2.92;;;;;;;;;;5058294;28;20212;-68
2022/07/31 04:17:25;;;;;;;6.47;3.10;;;;;;;;;;5056915;28;20197;-68
2022/07/31 04:19:50;;;;;;;9.35;3.30;;;;;;;;;;5054161;28;20533;-68
2022/07/31 04:22:15;;;;;;;3.20;2.55;;;;;;;;;;5058592;28;20856;-72
2022/07/31 04:24:41;;;;;;;5.20;3.00;;;;;;;;;;5059486;28;20204;-68
2022/07/31 04:27:06;;;;;;;4.30;2.67;;;;;;;;;;5056770;28;20264;-68
2022/07/31 04:29:31;;;;;;;5.18;2.70;;;;;;;;;;5062377;28;20625;-68
2022/07/31 04:31:57;;;;;;;5.40;2.55;;;;;;;;;;5056916;28;20205;-67
2022/07/31 04:34:22;;;;;;;4.32;2.58;;;;;;;;;;5055746;28;20235;-68
2022/07/31 04:36:48;;;;;;;4.70;2.78;;;;;;;;;;5053372;28;20184;-68
2022/07/31 04:39:13;;;;;;;4.00;2.92;;;;;;;;;;5068083;28;20176;-68
2022/07/31 04:41:38;;;;;;;3.85;2.50;;;;;;;;;;5066630;28;20199;-68
2022/07/31 04:44:04;;;;;;;3.28;2.35;;;;;;;;;;5053631;28;20172;-68
2022/07/31 04:46:29;;;;;;;3.78;2.20;;;;;;;;;;5051861;28;20674;-68
2022/07/31 04:48:54;;;;;;;6.78;2.40;;;;;;;;;;5060779;28;20188;-68
2022/07/31 04:51:22;;;;;;;3.65;2.20;;;;;;;;;;5062008;28;20190;-68
2022/07/31 04:53:49;;;;;;;5.03;2.47;;;;;;;;;;5062723;28;20283;-68
2022/07/31 04:59:02;;;;;;;4.07;2.10;;;;;;;;;;5055668;28;20202;-68
2022/07/31 05:01:27;;;;;;;3.30;2.20;;;;;;;;;;5056958;28;20192;-68
2022/07/31 05:03:52;;;;;;;3.00;2.13;;;;;;;;;;5052275;28;20264;-68
2022/07/31 05:06:18;;;;;;;3.83;1.85;;;;;;;;;;5059140;28;20471;-68
2022/07/31 05:08:44;;;;;;;3.60;1.90;;;;;;;;;;5049791;28;20177;-68
2022/07/31 05:11:24;;;;;;;6.72;2.03;;;;;;;;;;5065365;28;20177;-67
2022/07/31 05:13:53;;;;;;;6.47;2.40;;;;;;;;;;5062549;28;20213;-67
2022/07/31 05:16:20;;;;;;;2.92;2.00;;;;;;;;;;5052878;28;20603;-67
2022/07/31 05:18:46;;;;;;;6.70;2.65;;;;;;;;;;5052965;28;20189;-66
2022/07/31 05:21:12;;;;;;;3.53;1.83;;;;;;;;;;5056683;28;20556;-66
2022/07/31 05:23:42;;;;;;;2.17;1.70;;;;;;;;;;5052541;28;20265;-66
2022/07/31 05:26:08;;;;;;;5.50;2.10;;;;;;;;;;5052352;28;20257;-65
2022/07/31 05:28:34;;;;;;;3.30;2.40;;;;;;;;;;5054087;28;20185;-65
2022/07/31 05:31:00;;;;;;;3.45;1.90;;;;;;;;;;5049020;28;20718;-65
2022/07/31 05:33:27;;;;;;;5.20;2.03;;;;;;;;;;5051843;28;20197;-65
2022/07/31 05:35:53;;;;;;;4.75;2.42;;;;;;;;;;5050825;28;20193;-65
2022/07/31 05:38:18;;;;;;;3.40;2.40;;;;;;;;;;5053127;28;20181;-66
2022/07/31 05:40:44;;;;;;;5.13;2.40;;;;;;;;;;5051990;28;20177;-65
2022/07/31 05:43:09;;;;;;;6.65;2.35;;;;;;;;;;5049428;28;20239;-65
2022/07/31 05:45:35;;;;;;;4.78;2.65;;;;;;;;;;5051323;28;20188;-65
2022/07/31 05:48:01;;;;;;;6.68;2.70;;;;;;;;;;5050788;28;20247;-66
2022/07/31 05:50:26;;;;;;;3.47;2.70;;;;;;;;;;5059605;28;20644;-65
2022/07/31 05:52:52;;;;;;;4.97;2.60;;;;;;;;;;5052352;28;20181;-66
2022/07/31 05:55:17;;;;;;;6.78;2.90;;;;;;;;;;5053874;28;20652;-65
2022/07/31 05:57:42;;;;;;;3.75;3.15;;;;;;;;;;5067788;28;20184;-65
2022/07/31 06:00:08;;;;;;;5.25;3.58;;;;;;;;;;5053477;28;20177;-65
2022/07/31 06:02:34;;;;;;;5.43;3.10;;;;;;;;;;5049755;28;20188;-66
2022/07/31 06:05:00;;;;;;;7.25;2.92;;;;;;;;;;5053307;28;20176;-65
2022/07/31 06:07:25;;;;;;;3.95;3.47;;;;;;;;;;5048672;28;20190;-65
2022/07/31 06:09:51;;;;;;;5.28;3.65;;;;;;;;;;5057873;28;20188;-65
2022/07/31 06:12:16;;;;;;;4.05;3.58;;;;;;;;;;5061744;28;20181;-65
2022/07/31 06:14:42;;;;;;;5.40;3.80;;;;;;;;;;5052959;28;20292;-65
2022/07/31 06:17:07;;;;;;;8.50;3.67;;;;;;;;;;5052304;28;20192;-65
2022/07/31 06:19:33;;;;;;;8.48;4.03;;;;;;;;;;5059788;28;20169;-64
2022/07/31 06:21:59;;;;;;;5.88;3.67;;;;;;;;;;5049416;28;20189;-65
2022/07/31 06:24:24;;;;;;;7.63;4.78;;;;;;;;;;5051462;28;20178;-65
2022/07/31 06:26:50;;;;;;;4.88;3.90;;;;;;;;;;5057370;28;20200;-65
2022/07/31 06:29:16;;;;;;;8.75;4.85;;;;;;;;;;5067650;28;20214;-65
2022/07/31 06:31:41;;;;;;;6.85;4.22;;;;;;;;;;5052337;28;20209;-65
2022/07/31 06:34:07;;;;;;;9.32;4.50;;;;;;;;;;5052949;28;20223;-65
2022/07/31 06:36:32;;;;;;;8.10;4.80;;;;;;;;;;5059648;28;20181;-65
2022/07/31 06:38:57;;;;;;;5.15;4.20;;;;;;;;;;5058241;28;20181;-64
2022/07/31 06:44:07;;;;;;;8.00;5.18;;;;;;;;;;5049542;28;20188;-64
2022/07/31 06:46:32;;;;;;;7.07;5.20;;;;;;;;;;5050660;28;20178;-64
2022/07/31 06:48:58;;;;;;;8.57;5.78;;;;;;;;;;5053090;28;20189;-64
2022/07/31 06:51:23;;;;;;;8.57;5.60;;;;;;;;;;5048329;28;20240;-65
2022/07/31 06:53:48;;;;;;;11.30;5.30;;;;;;;;;;5048858;28;20220;-65
2022/07/31 06:56:14;;;;;;;8.45;5.07;;;;;;;;;;5048606;28;20177;-64
2022/07/31 06:58:39;;;;;;;9.25;5.65;;;;;;;;;;5052184;28;20547;-64
2022/07/31 07:01:04;;;;;;;6.30;5.47;;;;;;;;;;5049592;28;20268;-64
2022/07/31 07:03:30;;;;;;;9.57;5.90;;;;;;;;;;5050745;28;20178;-64
2022/07/31 07:05:55;;;;;;;7.72;5.95;;;;;;;;;;5050981;28;20188;-64
2022/07/31 07:08:20;;;;;;;11.15;6.22;;;;;;;;;;5061520;28;20185;-65
2022/07/31 07:10:46;;;;;;;7.85;6.43;;;;;;;;;;5063532;28;20192;-64
2022/07/31 07:13:11;;;;;;;9.20;6.45;;;;;;;;;;5058926;28;20223;-66
2022/07/31 07:15:36;;;;;;;7.80;6.05;;;;;;;;;;5063315;28;20168;-65
2022/07/31 07:18:02;;;;;;;9.27;5.38;;;;;;;;;;5056158;28;20558;-65
2022/07/31 07:20:27;;;;;;;7.63;6.90;;;;;;;;;;5058490;28;20193;-65
2022/07/31 07:22:52;;;;;;;9.93;6.32;;;;;;;;;;5053511;28;20189;-65
2022/07/31 07:25:19;;;;;;;8.00;7.20;;;;;;;;;;5055938;28;20228;-65
2022/07/31 07:27:45;;;;;;;9.60;6.28;;;;;;;;;;5053073;28;20276;-65
2022/07/31 07:30:10;;;;;;;12.57;7.15;;;;;;;;;;5053754;28;20656;-65
2022/07/31 07:32:36;;;;;;;9.20;7.10;;;;;;;;;;5059733;28;20687;-65
2022/07/31 07:35:02;;;;;;;11.10;6.88;;;;;;;;;;5059688;28;20300;-65
2022/07/31 07:37:28;;;;;;;8.95;7.05;;;;;;;;;;5055212;28;20683;-65
2022/07/31 07:39:53;;;;;;;10.80;7.45;;;;;;;;;;5056796;28;20260;-65
2022/07/31 07:42:19;;;;;;;8.60;6.38;;;;;;;;;;5049321;28;20189;-65
2022/07/31 07:44:44;;;;;;;9.13;6.43;;;;;;;;;;5052994;28;20548;-65
2022/07/31 07:47:09;;;;;;;10.40;6.90;;;;;;;;;;5051615;28;20270;-65
2022/07/31 07:49:35;;;;;;;9.18;7.20;;;;;;;;;;5051579;28;20272;-65
2022/07/31 07:52:01;;;;;;;9.70;6.70;;;;;;;;;;5057997;28;20532;-65
2022/07/31 07:54:27;;;;;;;10.98;7.25;;;;;;;;;;5048463;28;20196;-65
2022/07/31 07:56:53;;;;;;;13.50;6.90;;;;;;;;;;5063644;28;20214;-64
2022/07/31 07:59:19;;;;;;;10.60;7.55;;;;;;;;;;5063415;28;20565;-64
2022/07/31 08:01:44;;;;;;;11.80;6.95;;;;;;;;;;5049465;28;20194;-64
2022/07/31 08:04:10;;;;;;;10.65;6.63;;;;;;;;;;5060237;28;20184;-65
2022/07/31 08:06:35;;;;;;;11.45;7.18;;;;;;;;;;5047724;28;20205;-64
2022/07/31 08:09:00;;;;;;;8.93;7.47;;;;;;;;;;5047370;28;20193;-64
2022/07/31 08:11:26;;;;;;;10.88;7.93;;;;;;;;;;5049782;28;20192;-65
2022/07/31 08:13:51;;;;;;;12.38;7.75;;;;;;;;;;5049171;28;20229;-65
2022/07/31 08:16:20;;;;;;;13.15;7.63;;;;;;;;;;5048027;28;20184;-64
2022/07/31 08:18:47;;;;;;;11.00;7.82;;;;;;;;;;5050652;28;20220;-64
2022/07/31 08:21:12;;;;;;;11.02;8.68;;;;;;;;;;5049441;28;20204;-64
2022/07/31 08:23:37;;;;;;;14.18;7.57;;;;;;;;;;5049788;28;20177;-65
2022/07/31 08:26:03;;;;;;;12.90;6.72;;;;;;;;;;5018225;28;1051263;-65
2022/07/31 08:28:29;;;;;;;15.00;8.15;;;;;;;;;;5059902;28;20232;-65
2022/07/31 08:30:54;;;;;;;11.95;9.38;;;;;;;;;;5057258;28;20185;-64
2022/07/31 08:33:20;;;;;;;16.00;10.65;;;;;;;;;;5060939;28;20201;-65
2022/07/31 08:35:48;;;;;;;16.30;9.02;;;;;;;;;;5061878;28;20188;-64
2022/07/31 08:38:14;;;;;;;12.70;10.55;;;;;;;;;;5062303;28;20192;-64
2022/07/31 08:40:40;;;;;;;14.32;10.35;;;;;;;;;;5060131;28;20667;-64
2022/07/31 08:43:05;;;;;;;17.13;10.45;;;;;;;;;;5048672;28;20628;-65
2022/07/31 08:45:30;;;;;;;15.57;11.43;;;;;;;;;;5051442;28;20177;-65
2022/07/31 08:47:57;;;;;;;15.43;11.13;;;;;;;;;;5049734;28;20185;-64
2022/07/31 08:50:24;;;;;;;17.67;11.60;;;;;;;;;;5054637;28;20654;-64
2022/07/31 08:52:49;;;;;;;16.33;11.18;;;;;;;;;;5053910;28;20184;-65
2022/07/31 08:55:15;;;;;;;16.92;12.13;;;;;;;;;;5059350;28;20208;-64
2022/07/31 08:57:41;;;;;;;17.70;12.10;;;;;;;;;;5061376;28;20186;-65
2022/07/31 09:00:11;;;;;;;14.05;10.57;;;;;;;;;;5057288;28;20177;-65
2022/07/31 09:02:39;;;;;;;18.05;12.02;;;;;;;;;;5057379;28;20750;-65
2022/07/31 09:05:04;;;;;;;14.80;11.63;;;;;;;;;;5059953;28;20177;-64
2022/07/31 09:07:29;;;;;;;18.23;12.55;;;;;;;;;;5057435;28;20189;-65
2022/07/31 09:09:55;;;;;;;14.18;10.63;;;;;;;;;;5056935;28;20186;-65
2022/07/31 09:12:32;;;;;;;20.33;12.13;;;;;;;;;;5050588;28;20185;-68
2022/07/31 09:14:57;;;;;;;19.95;12.30;;;;;;;;;;5049743;28;20193;-69
2022/07/31 09:17:35;;;;;;;14.57;11.30;;;;;;;;;;5052738;28;20275;-65
2022/07/31 09:20:01;;;;;;;18.15;11.70;;;;;;;;;;5052566;28;20185;-63
2022/07/31 09:22:29;;;;;;;16.17;12.98;;;;;;;;;;5050033;28;20177;-64
2022/07/31 09:25:15;;;;;;;17.70;13.00;;;;;;;;;;5048003;28;20705;-63
2022/07/31 09:27:40;;;;;;;18.90;13.02;;;;;;;;;;5047785;28;20213;-64
2022/07/31 09:30:07;;;;;;;19.30;13.43;;;;;;;;;;5050674;28;20215;-64
2022/07/31 09:32:32;;;;;;;20.48;13.65;;;;;;;;;;5046418;28;20252;-63
2022/07/31 09:35:11;;;;;;;17.23;13.85;;;;;;;;;;5048791;28;20673;-64
2022/07/31 09:37:38;;;;;;;17.48;12.98;;;;;;;;;;5051271;28;20230;-65
2022/07/31 09:40:05;;;;;;;20.23;14.35;;;;;;;;;;5053979;28;20200;-64
2022/07/31 09:42:39;;;;;;;21.77;14.68;;;;;;;;;;5053330;28;20192;-64
2022/07/31 09:45:20;;;;;;;19.83;15.48;;;;;;;;;;5056494;28;20180;-66
2022/07/31 09:47:46;;;;;;;21.15;16.15;;;;;;;;;;5054447;28;20196;-65
2022/07/31 09:50:11;;;;;;;22.58;16.40;;;;;;;;;;5052268;28;20181;-65
2022/07/31 09:52:37;;;;;;;23.60;16.25;;;;;;;;;;5056708;28;20599;-65
2022/07/31 09:55:04;;;;;;;20.83;16.25;;;;;;;;;;5053770;28;20224;-64
2022/07/31 09:57:30;;;;;;;24.85;17.02;;;;;;;;;;5061033;28;20261;-65
2022/07/31 09:59:55;;;;;;;23.17;16.08;;;;;;;;;;5058019;28;20189;-65
2022/07/31 10:02:26;;;;;;;19.35;15.32;;;;;;;;;;5055010;28;20188;-65
2022/07/31 10:04:56;;;;;;;18.02;14.80;;;;;;;;;;5052569;28;20177;-64
2022/07/31 10:07:25;;;;;;;22.85;15.48;;;;;;;;;;5053002;28;20212;-65
2022/07/31 10:09:55;;;;;;;24.17;15.70;;;;;;;;;;5054298;28;20661;-65
2022/07/31 10:12:22;;;;;;;24.38;15.93;;;;;;;;;;5049859;28;20378;-65
2022/07/31 10:14:50;;;;;;;16.45;12.80;;;;;;;;;;5058090;28;20231;-65
2022/07/31 10:17:22;;;;;;;26.40;16.73;;;;;;;;;;5049783;28;20181;-64
2022/07/31 10:19:49;;;;;;;19.42;17.00;;;;;;;;;;5058093;28;20579;-64
2022/07/31 10:22:17;;;;;;;20.50;17.88;;;;;;;;;;5049079;28;20185;-64
2022/07/31 10:24:46;;;;;;;24.00;17.77;;;;;;;;;;5056273;28;20184;-64
2022/07/31 10:27:14;;;;;;;20.88;15.25;;;;;;;;;;5057142;28;20230;-65
2022/07/31 10:29:40;;;;;;;21.13;16.15;;;;;;;;;;5054955;28;20260;-64
2022/07/31 10:32:07;;;;;;;21.77;13.80;;;;;;;;;;5047372;28;20209;-65
2022/07/31 10:34:33;;;;;;;18.25;14.18;;;;;;;;;;5049844;28;20205;-65
2022/07/31 10:37:06;;;;;;;15.93;13.32;;;;;;;;;;5053061;28;20210;-64
2022/07/31 10:40:09;;;;;;;19.25;12.95;;;;;;;;;;5050776;28;20180;-64
2022/07/31 10:42:54;;;;;;;16.35;12.88;;;;;;;;;;5054093;28;20180;-65
2022/07/31 10:45:19;;;;;;;20.58;13.07;;;;;;;;;;4356324;28;10000702;-64
2022/07/31 10:47:55;;;;;;;18.75;13.02;;;;;;;;;;5056153;28;20318;-64
2022/07/31 10:50:23;;;;;;;13.80;12.32;;;;;;;;;;5057135;28;20188;-66
2022/07/31 10:52:49;;;;;;;15.00;12.07;;;;;;;;;;5054125;28;20193;-72
2022/07/31 10:55:25;;;;;;;14.65;11.25;;;;;;;;;;5049219;28;20209;-64
2022/07/31 10:57:51;;;;;;;14.00;11.57;;;;;;;;;;5056589;28;20184;-70
2022/07/31 11:00:19;;;;;;;13.05;9.95;;;;;;;;;;5063163;28;21279;-64
2022/07/31 11:02:46;;;;;;;12.07;9.23;;;;;;;;;;5061516;28;20245;-69
2022/07/31 11:05:20;;;;;;;12.82;9.02;;;;;;;;;;5045606;28;20193;-64
2022/07/31 11:07:46;;;;;;;11.80;8.20;;;;;;;;;;5044845;28;20184;-64
2022/07/31 11:10:20;;;;;;;10.65;8.70;;;;;;;;;;5055306;28;20849;-64
2022/07/31 11:13:07;;;;;;;12.80;9.00;;;;;;;;;;5049474;28;20185;-65
2022/07/31 11:15:33;;;;;;;11.48;7.97;;;;;;;;;;5050111;28;20595;-65
2022/07/31 11:18:16;;;;;;;10.25;8.32;;;;;;;;;;5057660;28;20205;-64
2022/07/31 11:20:45;;;;;;;9.30;8.40;;;;;;;;;;5063207;28;20188;-69
2022/07/31 11:23:14;;;;;;;11.30;8.05;;;;;;;;;;5056756;28;20213;-64
2022/07/31 11:25:40;;;;;;;12.63;7.78;;;;;;;;;;5055576;28;20225;-64
2022/07/31 11:28:25;;;;;;;9.75;8.50;;;;;;;;;;5055271;28;20520;-64
2022/07/31 11:30:53;;;;;;;9.07;7.65;;;;;;;;;;5059736;28;20574;-64
2022/07/31 11:33:32;;;;;;;9.90;7.60;;;;;;;;;;5057159;28;20200;-64
2022/07/31 11:36:15;;;;;;;10.15;8.23;;;;;;;;;;5060926;28;20682;-69
2022/07/31 11:38:43;;;;;;;9.40;8.38;;;;;;;;;;5059946;28;20172;-64
2022/07/31 11:41:09;;;;;;;10.57;8.88;;;;;;;;;;5053189;28;20185;-64
2022/07/31 11:43:36;;;;;;;11.73;9.90;;;;;;;;;;5055242;28;20186;-64
2022/07/31 11:46:02;;;;;;;10.90;9.68;;;;;;;;;;5054231;28;20233;-64
2022/07/31 11:48:30;;;;;;;15.45;10.80;;;;;;;;;;5051997;28;20717;-65
2022/07/31 11:50:56;;;;;;;11.75;10.48;;;;;;;;;;5054644;28;20538;-64
2022/07/31 11:53:21;;;;;;;15.48;12.45;;;;;;;;;;5057202;28;20204;-64
2022/07/31 11:55:52;;;;;;;15.30;12.48;;;;;;;;;;5057605;28;20267;-64
2022/07/31 11:58:22;;;;;;;16.20;12.77;;;;;;;;;;5055499;28;20197;-65
2022/07/31 12:00:53;;;;;;;15.30;13.57;;;;;;;;;;5056295;28;20176;-64
2022/07/31 12:03:21;;;;;;;16.48;13.05;;;;;;;;;;5056809;28;20411;-65
2022/07/31 12:05:49;;;;;;;19.83;15.13;;;;;;;;;;5057374;28;20211;-65
2022/07/31 12:08:15;;;;;;;18.25;14.57;;;;;;;;;;5054585;28;20212;-64
2022/07/31 12:10:41;;;;;;;18.65;15.02;;;;;;;;;;5056478;28;20217;-65
2022/07/31 12:13:15;;;;;;;17.15;15.18;;;;;;;;;;5050697;28;20190;-64
2022/07/31 12:15:53;;;;;;;18.95;15.75;;;;;;;;;;5053948;28;20185;-65
2022/07/31 12:18:18;;;;;;;21.95;15.93;;;;;;;;;;5050316;28;20661;-65
2022/07/31 12:20:56;;;;;;;20.83;16.90;;;;;;;;;;5056646;28;20260;-65
2022/07/31 12:23:22;;;;;;;25.55;17.67;;;;;;;;;;5055009;28;20532;-65
2022/07/31 12:25:48;;;;;;;21.20;19.00;;;;;;;;;;5064117;28;20224;-65
2022/07/31 12:28:13;;;;;;;23.33;17.80;;;;;;;;;;5051672;28;20187;-65
2022/07/31 12:30:40;;;;;;;23.52;18.35;;;;;;;;;;5051168;28;20844;-65
2022/07/31 12:33:07;;;;;;;24.83;19.02;;;;;;;;;;5060095;28;20204;-65
2022/07/31 12:35:40;;;;;;;23.20;18.58;;;;;;;;;;5061168;28;20192;-65
2022/07/31 12:38:06;;;;;;;24.45;19.10;;;;;;;;;;5057461;28;20649;-65
2022/07/31 12:40:31;;;;;;;23.02;19.60;;;;;;;;;;5062761;28;20212;-65
2022/07/31 12:42:58;;;;;;;24.05;19.05;;;;;;;;;;5057494;28;20284;-65
2022/07/31 12:45:30;;;;;;;23.90;18.88;;;;;;;;;;5049115;28;20184;-65
2022/07/31 12:47:56;;;;;;;22.85;18.50;;;;;;;;;;5058299;28;20212;-66
2022/07/31 12:50:23;;;;;;;23.48;18.70;;;;;;;;;;5050325;28;20190;-65
2022/07/31 12:52:49;;;;;;;21.98;18.40;;;;;;;;;;5061260;28;20204;-65
2022/07/31 12:55:15;;;;;;;19.10;16.35;;;;;;;;;;5061345;28;20206;-64
2022/07/31 12:57:41;;;;;;;22.20;18.50;;;;;;;;;;5055299;28;20196;-64
2022/07/31 13:00:07;;;;;;;25.33;18.35;;;;;;;;;;5051206;28;20181;-64
2022/07/31 13:02:32;;;;;;;21.85;18.27;;;;;;;;;;5055488;28;20567;-64
2022/07/31 13:04:58;;;;;;;27.17;19.10;;;;;;;;;;5056813;28;20173;-64
2022/07/31 13:07:25;;;;;;;22.77;18.25;;;;;;;;;;5054020;28;20177;-64
2022/07/31 13:09:50;;;;;;;21.38;16.80;;;;;;;;;;5052467;28;20251;-64
2022/07/31 13:12:16;;;;;;;21.05;17.52;;;;;;;;;;5066126;28;20649;-64
2022/07/31 13:14:41;;;;;;;21.02;16.92;;;;;;;;;;5065693;28;20209;-64
2022/07/31 13:17:06;;;;;;;20.50;16.75;;;;;;;;;;5050389;28;20177;-64
2022/07/31 13:19:32;;;;;;;17.42;15.45;;;;;;;;;;5065908;28;20184;-64
2022/07/31 13:21:57;;;;;;;21.48;16.08;;;;;;;;;;5057286;28;20189;-64
2022/07/31 13:24:23;;;;;;;19.60;15.88;;;;;;;;;;5051788;28;20177;-65
2022/07/31 13:26:48;;;;;;;17.58;15.60;;;;;;;;;;5061322;28;20237;-64
2022/07/31 13:29:15;;;;;;;18.70;14.95;;;;;;;;;;5056643;28;20190;-64
2022/07/31 13:31:40;;;;;;;18.23;15.25;;;;;;;;;;5060387;28;20670;-64
2022/07/31 13:34:06;;;;;;;19.52;15.82;;;;;;;;;;5049811;28;20206;-64
2022/07/31 13:36:32;;;;;;;17.17;15.07;;;;;;;;;;5048873;28;20439;-64
2022/07/31 13:38:57;;;;;;;18.52;14.95;;;;;;;;;;5050931;28;20191;-64
2022/07/31 13:41:23;;;;;;;18.02;15.60;;;;;;;;;;5064929;28;20212;-65
2022/07/31 13:43:52;;;;;;;18.65;15.30;;;;;;;;;;5053012;28;20635;-71
2022/07/31 13:46:18;;;;;;;18.75;16.55;;;;;;;;;;5049402;28;20189;-65
2022/07/31 13:48:44;;;;;;;19.27;15.88;;;;;;;;;;5048783;28;20235;-65
2022/07/31 13:51:09;;;;;;;20.88;16.25;;;;;;;;;;5058991;28;20193;-65
2022/07/31 13:53:35;;;;;;;19.25;16.75;;;;;;;;;;5047407;28;20196;-65
2022/07/31 13:56:00;;;;;;;14.48;12.43;;;;;;;;;;5066475;28;20485;-65
2022/07/31 13:58:26;;;;;;;18.08;15.60;;;;;;;;;;5067461;28;20214;-64
2022/07/31 14:00:55;;;;;;;18.95;16.15;;;;;;;;;;5068174;28;20188;-65
2022/07/31 14:03:21;;;;;;;18.73;15.85;;;;;;;;;;5056248;28;20189;-64
2022/07/31 14:05:46;;;;;;;20.48;16.27;;;;;;;;;;5057417;28;20276;-65
2022/07/31 14:08:12;;;;;;;19.38;15.38;;;;;;;;;;5062455;28;20257;-65
2022/07/31 14:10:37;;;;;;;19.50;16.13;;;;;;;;;;5052045;28;20258;-65
2022/07/31 14:13:02;;;;;;;19.33;15.27;;;;;;;;;;5048778;28;20189;-65
2022/07/31 14:15:27;;;;;;;21.52;16.02;;;;;;;;;;5057585;28;20205;-65
2022/07/31 14:17:53;;;;;;;17.90;15.75;;;;;;;;;;5060238;28;20188;-65
2022/07/31 14:20:18;;;;;;;18.75;15.32;;;;;;;;;;5047554;28;20185;-65
2022/07/31 14:22:44;;;;;;;22.58;16.05;;;;;;;;;;5054687;28;20185;-65
2022/07/31 14:25:11;;;;;;;16.95;15.15;;;;;;;;;;5060174;28;20699;-65
2022/07/31 14:27:37;;;;;;;17.40;15.32;;;;;;;;;;5056343;28;20586;-65
2022/07/31 14:30:06;;;;;;;16.65;14.88;;;;;;;;;;5061838;28;20189;-65
2022/07/31 14:32:31;;;;;;;16.60;14.32;;;;;;;;;;5057052;28;20238;-65
2022/07/31 14:34:57;;;;;;;17.25;13.48;;;;;;;;;;5050985;28;20201;-65
2022/07/31 14:37:22;;;;;;;13.77;12.30;;;;;;;;;;5054112;28;20185;-65